sensor_id;sensor_type;location;lat;lon;timestamp;temperature;humidity
67901;DHT22;54700;51.796;10.956;2023-07-29T00:00:41;19.90;97.20
67901;DHT22;54700;51.796;10.956;2023-07-29T00:03:08;19.90;96.80
67901;DHT22;54700;51.796;10.956;2023-07-29T00:05:36;19.80;97.60
67901;DHT22;54700;51.796;10.956;2023-07-29T00:08:04;19.80;98.00
67901;DHT22;54700;51.796;10.956;2023-07-29T00:10:32;19.70;98.00
67901;DHT22;54700;51.796;10.956;2023-07-29T00:13:01;19.70;97.40
67901;DHT22;54700;51.796;10.956;2023-07-29T00:15:28;19.70;97.50
67901;DHT22;54700;51.796;10.956;2023-07-29T00:17:55;19.70;97.40
67901;DHT22;54700;51.796;10.956;2023-07-29T00:20:22;19.70;97.30
67901;DHT22;54700;51.796;10.956;2023-07-29T00:22:49;19.70;97.20
67901;DHT22;54700;51.796;10.956;2023-07-29T00:25:20;19.70;97.00
67901;DHT22;54700;51.796;10.956;2023-07-29T00:27:47;19.70;96.90
67901;DHT22;54700;51.796;10.956;2023-07-29T00:30:14;19.70;96.80
67901;DHT22;54700;51.796;10.956;2023-07-29T00:32:41;19.70;96.60
67901;DHT22;54700;51.796;10.956;2023-07-29T00:35:08;19.70;96.40
67901;DHT22;54700;51.796;10.956;2023-07-29T00:37:35;19.70;96.20
67901;DHT22;54700;51.796;10.956;2023-07-29T00:40:03;19.80;96.10
67901;DHT22;54700;51.796;10.956;2023-07-29T00:42:35;19.80;96.10
67901;DHT22;54700;51.796;10.956;2023-07-29T00:45:02;19.80;96.00
67901;DHT22;54700;51.796;10.956;2023-07-29T00:47:31;19.80;95.90
67901;DHT22;54700;51.796;10.956;2023-07-29T00:49:58;19.80;96.20
67901;DHT22;54700;51.796;10.956;2023-07-29T00:52:25;19.70;95.90
67901;DHT22;54700;51.796;10.956;2023-07-29T00:54:52;19.70;95.90
67901;DHT22;54700;51.796;10.956;2023-07-29T00:57:19;19.70;95.90
67901;DHT22;54700;51.796;10.956;2023-07-29T00:59:48;19.70;96.10
67901;DHT22;54700;51.796;10.956;2023-07-29T01:02:15;19.60;96.20
67901;DHT22;54700;51.796;10.956;2023-07-29T01:04:43;19.60;96.60
67901;DHT22;54700;51.796;10.956;2023-07-29T01:07:11;19.50;96.50
67901;DHT22;54700;51.796;10.956;2023-07-29T01:09:44;19.40;96.80
67901;DHT22;54700;51.796;10.956;2023-07-29T01:12:22;19.40;97.10
67901;DHT22;54700;51.796;10.956;2023-07-29T01:14:57;19.30;97.80
67901;DHT22;54700;51.796;10.956;2023-07-29T01:17:32;19.20;98.00
67901;DHT22;54700;51.796;10.956;2023-07-29T01:20:04;19.20;98.10
67901;DHT22;54700;51.796;10.956;2023-07-29T01:22:34;19.10;98.20
67901;DHT22;54700;51.796;10.956;2023-07-29T01:25:04;19.10;98.20
67901;DHT22;54700;51.796;10.956;2023-07-29T01:27:31;19.10;98.30
67901;DHT22;54700;51.796;10.956;2023-07-29T01:29:58;19.10;98.00
67901;DHT22;54700;51.796;10.956;2023-07-29T01:32:28;19.10;97.80
67901;DHT22;54700;51.796;10.956;2023-07-29T01:35:03;19.00;97.60
67901;DHT22;54700;51.796;10.956;2023-07-29T01:37:36;19.00;98.20
67901;DHT22;54700;51.796;10.956;2023-07-29T01:40:07;19.00;97.80
67901;DHT22;54700;51.796;10.956;2023-07-29T01:42:35;19.00;97.80
67901;DHT22;54700;51.796;10.956;2023-07-29T01:45:03;19.00;98.00
67901;DHT22;54700;51.796;10.956;2023-07-29T01:47:31;18.90;98.20
67901;DHT22;54700;51.796;10.956;2023-07-29T01:49:58;18.90;98.40
67901;DHT22;54700;51.796;10.956;2023-07-29T01:52:25;18.80;98.60
67901;DHT22;54700;51.796;10.956;2023-07-29T01:54:52;18.80;98.50
67901;DHT22;54700;51.796;10.956;2023-07-29T01:57:20;18.70;98.30
67901;DHT22;54700;51.796;10.956;2023-07-29T01:59:47;18.70;98.60
67901;DHT22;54700;51.796;10.956;2023-07-29T02:02:14;18.70;98.50
67901;DHT22;54700;51.796;10.956;2023-07-29T02:04:40;18.70;98.70
67901;DHT22;54700;51.796;10.956;2023-07-29T02:07:10;18.60;98.70
67901;DHT22;54700;51.796;10.956;2023-07-29T02:09:37;18.60;98.40
67901;DHT22;54700;51.796;10.956;2023-07-29T02:12:04;18.60;98.30
67901;DHT22;54700;51.796;10.956;2023-07-29T02:14:34;18.60;98.60
67901;DHT22;54700;51.796;10.956;2023-07-29T02:17:01;18.50;98.80
67901;DHT22;54700;51.796;10.956;2023-07-29T02:19:27;18.50;98.80
67901;DHT22;54700;51.796;10.956;2023-07-29T02:21:54;18.50;98.80
67901;DHT22;54700;51.796;10.956;2023-07-29T02:24:21;18.50;98.80
67901;DHT22;54700;51.796;10.956;2023-07-29T02:26:48;18.50;99.00
67901;DHT22;54700;51.796;10.956;2023-07-29T02:29:15;18.50;99.00
67901;DHT22;54700;51.796;10.956;2023-07-29T02:31:45;18.50;98.90
67901;DHT22;54700;51.796;10.956;2023-07-29T02:34:13;18.50;98.90
67901;DHT22;54700;51.796;10.956;2023-07-29T02:36:39;18.50;98.90
67901;DHT22;54700;51.796;10.956;2023-07-29T02:39:06;18.50;98.80
67901;DHT22;54700;51.796;10.956;2023-07-29T02:41:33;18.40;98.70
67901;DHT22;54700;51.796;10.956;2023-07-29T02:44:01;18.40;98.80
67901;DHT22;54700;51.796;10.956;2023-07-29T02:46:28;18.30;98.80
67901;DHT22;54700;51.796;10.956;2023-07-29T02:48:56;18.30;98.80
67901;DHT22;54700;51.796;10.956;2023-07-29T02:51:26;18.40;99.00
67901;DHT22;54700;51.796;10.956;2023-07-29T02:53:53;18.30;98.90
67901;DHT22;54700;51.796;10.956;2023-07-29T02:56:20;18.30;98.90
67901;DHT22;54700;51.796;10.956;2023-07-29T02:58:47;18.20;99.10
67901;DHT22;54700;51.796;10.956;2023-07-29T03:01:14;18.20;99.30
67901;DHT22;54700;51.796;10.956;2023-07-29T03:03:40;18.20;99.30
67901;DHT22;54700;51.796;10.956;2023-07-29T03:06:09;18.20;99.40
67901;DHT22;54700;51.796;10.956;2023-07-29T03:08:37;18.20;99.50
67901;DHT22;54700;51.796;10.956;2023-07-29T03:11:05;18.20;99.60
67901;DHT22;54700;51.796;10.956;2023-07-29T03:13:36;18.20;99.60
67901;DHT22;54700;51.796;10.956;2023-07-29T03:16:07;18.30;99.40
67901;DHT22;54700;51.796;10.956;2023-07-29T03:18:34;18.40;99.10
67901;DHT22;54700;51.796;10.956;2023-07-29T03:21:02;18.50;98.60
67901;DHT22;54700;51.796;10.956;2023-07-29T03:23:31;18.60;98.30
67901;DHT22;54700;51.796;10.956;2023-07-29T03:25:59;18.60;98.00
67901;DHT22;54700;51.796;10.956;2023-07-29T03:28:27;18.70;97.80
67901;DHT22;54700;51.796;10.956;2023-07-29T03:30:55;18.70;97.70
67901;DHT22;54700;51.796;10.956;2023-07-29T03:33:23;18.80;97.70
67901;DHT22;54700;51.796;10.956;2023-07-29T03:35:52;18.80;97.60
67901;DHT22;54700;51.796;10.956;2023-07-29T03:38:19;18.80;97.50
67901;DHT22;54700;51.796;10.956;2023-07-29T03:40:48;18.80;97.60
67901;DHT22;54700;51.796;10.956;2023-07-29T03:43:15;18.80;97.60
67901;DHT22;54700;51.796;10.956;2023-07-29T03:45:41;18.80;97.80
67901;DHT22;54700;51.796;10.956;2023-07-29T03:48:08;18.80;97.80
67901;DHT22;54700;51.796;10.956;2023-07-29T03:50:35;18.70;97.90
67901;DHT22;54700;51.796;10.956;2023-07-29T03:53:02;18.70;98.00
67901;DHT22;54700;51.796;10.956;2023-07-29T03:55:30;18.70;98.20
67901;DHT22;54700;51.796;10.956;2023-07-29T03:57:58;18.70;98.40
67901;DHT22;54700;51.796;10.956;2023-07-29T04:00:26;18.70;98.20
67901;DHT22;54700;51.796;10.956;2023-07-29T04:02:53;18.70;98.20
67901;DHT22;54700;51.796;10.956;2023-07-29T04:05:20;18.80;98.20
67901;DHT22;54700;51.796;10.956;2023-07-29T04:07:47;18.80;98.30
67901;DHT22;54700;51.796;10.956;2023-07-29T04:10:14;18.90;98.00
67901;DHT22;54700;51.796;10.956;2023-07-29T04:12:41;18.90;98.00
67901;DHT22;54700;51.796;10.956;2023-07-29T04:15:09;18.90;97.70
67901;DHT22;54700;51.796;10.956;2023-07-29T04:17:36;19.00;97.70
67901;DHT22;54700;51.796;10.956;2023-07-29T04:20:03;19.00;97.50
67901;DHT22;54700;51.796;10.956;2023-07-29T04:22:31;19.00;97.50
67901;DHT22;54700;51.796;10.956;2023-07-29T04:24:58;19.00;97.40
67901;DHT22;54700;51.796;10.956;2023-07-29T04:27:25;19.00;97.50
67901;DHT22;54700;51.796;10.956;2023-07-29T04:29:52;19.10;97.70
67901;DHT22;54700;51.796;10.956;2023-07-29T04:32:20;19.20;97.80
67901;DHT22;54700;51.796;10.956;2023-07-29T04:34:47;19.20;97.50
67901;DHT22;54700;51.796;10.956;2023-07-29T04:37:14;19.20;97.20
67901;DHT22;54700;51.796;10.956;2023-07-29T04:39:41;19.20;97.30
67901;DHT22;54700;51.796;10.956;2023-07-29T04:42:07;19.30;96.90
67901;DHT22;54700;51.796;10.956;2023-07-29T04:44:34;19.30;96.80
67901;DHT22;54700;51.796;10.956;2023-07-29T04:47:01;19.40;96.70
67901;DHT22;54700;51.796;10.956;2023-07-29T04:49:29;19.50;96.80
67901;DHT22;54700;51.796;10.956;2023-07-29T04:51:56;19.40;96.70
67901;DHT22;54700;51.796;10.956;2023-07-29T04:54:23;19.50;96.70
67901;DHT22;54700;51.796;10.956;2023-07-29T04:56:50;19.60;96.40
67901;DHT22;54700;51.796;10.956;2023-07-29T04:59:16;19.60;96.20
67901;DHT22;54700;51.796;10.956;2023-07-29T05:01:43;19.70;96.20
67901;DHT22;54700;51.796;10.956;2023-07-29T05:04:10;19.70;95.80
67901;DHT22;54700;51.796;10.956;2023-07-29T05:06:38;19.90;95.50
67901;DHT22;54700;51.796;10.956;2023-07-29T05:09:15;20.00;95.10
67901;DHT22;54700;51.796;10.956;2023-07-29T05:11:43;20.20;94.80
67901;DHT22;54700;51.796;10.956;2023-07-29T05:14:11;20.70;93.40
67901;DHT22;54700;51.796;10.956;2023-07-29T05:16:39;20.90;92.60
67901;DHT22;54700;51.796;10.956;2023-07-29T05:19:05;20.90;92.80
67901;DHT22;54700;51.796;10.956;2023-07-29T05:21:33;20.80;92.80
67901;DHT22;54700;51.796;10.956;2023-07-29T05:24:01;20.70;93.10
67901;DHT22;54700;51.796;10.956;2023-07-29T05:26:28;20.60;93.20
67901;DHT22;54700;51.796;10.956;2023-07-29T05:28:54;20.50;93.40
67901;DHT22;54700;51.796;10.956;2023-07-29T05:31:21;20.40;93.70
67901;DHT22;54700;51.796;10.956;2023-07-29T05:33:48;20.30;94.30
67901;DHT22;54700;51.796;10.956;2023-07-29T05:36:15;20.20;94.30
67901;DHT22;54700;51.796;10.956;2023-07-29T05:38:42;20.20;94.30
67901;DHT22;54700;51.796;10.956;2023-07-29T05:41:10;20.10;94.60
67901;DHT22;54700;51.796;10.956;2023-07-29T05:43:37;20.10;94.80
67901;DHT22;54700;51.796;10.956;2023-07-29T05:46:08;20.00;94.90
67901;DHT22;54700;51.796;10.956;2023-07-29T05:48:35;20.00;94.90
67901;DHT22;54700;51.796;10.956;2023-07-29T05:51:02;19.90;95.10
67901;DHT22;54700;51.796;10.956;2023-07-29T05:53:30;19.80;95.30
67901;DHT22;54700;51.796;10.956;2023-07-29T05:55:57;19.70;95.50
67901;DHT22;54700;51.796;10.956;2023-07-29T05:58:25;19.70;95.90
67901;DHT22;54700;51.796;10.956;2023-07-29T06:00:52;19.70;96.00
67901;DHT22;54700;51.796;10.956;2023-07-29T06:03:19;19.60;96.20
67901;DHT22;54700;51.796;10.956;2023-07-29T06:05:45;19.60;96.50
67901;DHT22;54700;51.796;10.956;2023-07-29T06:08:12;19.50;96.80
67901;DHT22;54700;51.796;10.956;2023-07-29T06:10:39;19.50;96.70
67901;DHT22;54700;51.796;10.956;2023-07-29T06:13:06;19.50;97.10
67901;DHT22;54700;51.796;10.956;2023-07-29T06:15:34;19.50;97.40
67901;DHT22;54700;51.796;10.956;2023-07-29T06:18:01;19.50;97.60
67901;DHT22;54700;51.796;10.956;2023-07-29T06:20:28;19.50;97.80
67901;DHT22;54700;51.796;10.956;2023-07-29T06:22:55;19.50;97.90
67901;DHT22;54700;51.796;10.956;2023-07-29T06:25:22;19.50;98.60
67901;DHT22;54700;51.796;10.956;2023-07-29T06:27:49;19.40;99.40
67901;DHT22;54700;51.796;10.956;2023-07-29T06:30:16;19.30;99.60
67901;DHT22;54700;51.796;10.956;2023-07-29T06:32:45;19.30;99.90
67901;DHT22;54700;51.796;10.956;2023-07-29T06:35:12;19.20;99.90
67901;DHT22;54700;51.796;10.956;2023-07-29T06:37:39;19.20;99.90
67901;DHT22;54700;51.796;10.956;2023-07-29T06:40:06;19.30;99.90
67901;DHT22;54700;51.796;10.956;2023-07-29T06:42:34;19.40;99.90
67901;DHT22;54700;51.796;10.956;2023-07-29T06:45:03;19.60;99.90
67901;DHT22;54700;51.796;10.956;2023-07-29T06:47:30;19.80;99.90
67901;DHT22;54700;51.796;10.956;2023-07-29T06:49:58;20.00;99.90
67901;DHT22;54700;51.796;10.956;2023-07-29T06:52:25;20.20;99.90
67901;DHT22;54700;51.796;10.956;2023-07-29T06:54:52;20.20;99.90
67901;DHT22;54700;51.796;10.956;2023-07-29T06:57:19;20.20;99.90
67901;DHT22;54700;51.796;10.956;2023-07-29T06:59:46;20.20;99.90
67901;DHT22;54700;51.796;10.956;2023-07-29T07:02:13;20.20;99.90
67901;DHT22;54700;51.796;10.956;2023-07-29T07:04:40;20.40;99.70
67901;DHT22;54700;51.796;10.956;2023-07-29T07:07:09;20.50;99.60
67901;DHT22;54700;51.796;10.956;2023-07-29T07:09:35;20.70;99.50
67901;DHT22;54700;51.796;10.956;2023-07-29T07:12:03;20.80;98.50
67901;DHT22;54700;51.796;10.956;2023-07-29T07:14:30;20.80;97.80
67901;DHT22;54700;51.796;10.956;2023-07-29T07:16:57;20.80;97.00
67901;DHT22;54700;51.796;10.956;2023-07-29T07:19:23;20.90;97.50
67901;DHT22;54700;51.796;10.956;2023-07-29T07:21:50;21.10;96.80
67901;DHT22;54700;51.796;10.956;2023-07-29T07:24:19;21.30;97.20
67901;DHT22;54700;51.796;10.956;2023-07-29T07:26:45;21.40;96.50
67901;DHT22;54700;51.796;10.956;2023-07-29T07:29:12;21.50;96.10
67901;DHT22;54700;51.796;10.956;2023-07-29T07:31:39;21.60;95.40
67901;DHT22;54700;51.796;10.956;2023-07-29T07:34:07;21.60;95.30
67901;DHT22;54700;51.796;10.956;2023-07-29T07:36:34;21.50;95.50
67901;DHT22;54700;51.796;10.956;2023-07-29T07:39:03;21.40;95.70
67901;DHT22;54700;51.796;10.956;2023-07-29T07:41:31;21.40;95.60
67901;DHT22;54700;51.796;10.956;2023-07-29T07:43:58;21.30;95.00
67901;DHT22;54700;51.796;10.956;2023-07-29T07:46:25;21.30;95.60
67901;DHT22;54700;51.796;10.956;2023-07-29T07:48:52;21.30;96.10
67901;DHT22;54700;51.796;10.956;2023-07-29T07:51:18;21.30;95.80
67901;DHT22;54700;51.796;10.956;2023-07-29T07:53:45;21.30;95.90
67901;DHT22;54700;51.796;10.956;2023-07-29T07:56:12;21.40;95.80
67901;DHT22;54700;51.796;10.956;2023-07-29T07:58:41;21.40;95.90
67901;DHT22;54700;51.796;10.956;2023-07-29T08:01:11;21.30;96.10
67901;DHT22;54700;51.796;10.956;2023-07-29T08:03:37;21.20;95.80
67901;DHT22;54700;51.796;10.956;2023-07-29T08:06:04;21.20;96.10
67901;DHT22;54700;51.796;10.956;2023-07-29T08:08:31;21.20;96.30
67901;DHT22;54700;51.796;10.956;2023-07-29T08:10:58;21.20;96.70
67901;DHT22;54700;51.796;10.956;2023-07-29T08:13:25;21.20;96.80
67901;DHT22;54700;51.796;10.956;2023-07-29T08:15:53;21.20;96.80
67901;DHT22;54700;51.796;10.956;2023-07-29T08:18:20;21.20;96.80
67901;DHT22;54700;51.796;10.956;2023-07-29T08:20:53;21.20;97.40
67901;DHT22;54700;51.796;10.956;2023-07-29T08:23:23;21.20;97.60
67901;DHT22;54700;51.796;10.956;2023-07-29T08:25:55;20.90;96.50
67901;DHT22;54700;51.796;10.956;2023-07-29T08:28:27;20.80;97.50
67901;DHT22;54700;51.796;10.956;2023-07-29T08:30:56;20.70;97.40
67901;DHT22;54700;51.796;10.956;2023-07-29T08:33:23;20.60;98.10
67901;DHT22;54700;51.796;10.956;2023-07-29T08:35:51;20.50;98.00
67901;DHT22;54700;51.796;10.956;2023-07-29T08:38:20;20.30;97.80
67901;DHT22;54700;51.796;10.956;2023-07-29T08:40:49;19.90;98.40
67901;DHT22;54700;51.796;10.956;2023-07-29T08:43:20;19.70;98.70
67901;DHT22;54700;51.796;10.956;2023-07-29T08:45:54;19.40;99.20
67901;DHT22;54700;51.796;10.956;2023-07-29T08:48:27;19.10;99.30
67901;DHT22;54700;51.796;10.956;2023-07-29T08:51:07;18.90;99.90
67901;DHT22;54700;51.796;10.956;2023-07-29T08:53:35;18.90;99.90
67901;DHT22;54700;51.796;10.956;2023-07-29T08:56:03;18.90;99.90
67901;DHT22;54700;51.796;10.956;2023-07-29T08:58:31;19.00;99.90
67901;DHT22;54700;51.796;10.956;2023-07-29T09:01:02;19.10;99.90
67901;DHT22;54700;51.796;10.956;2023-07-29T09:03:29;19.20;99.90
67901;DHT22;54700;51.796;10.956;2023-07-29T09:05:56;19.30;99.90
67901;DHT22;54700;51.796;10.956;2023-07-29T09:08:24;19.50;99.90
67901;DHT22;54700;51.796;10.956;2023-07-29T09:10:53;19.70;99.90
67901;DHT22;54700;51.796;10.956;2023-07-29T09:13:20;19.90;99.90
67901;DHT22;54700;51.796;10.956;2023-07-29T09:15:47;20.00;99.90
67901;DHT22;54700;51.796;10.956;2023-07-29T09:18:16;20.20;99.80
67901;DHT22;54700;51.796;10.956;2023-07-29T09:20:45;20.20;99.90
67901;DHT22;54700;51.796;10.956;2023-07-29T09:23:14;20.20;99.90
67901;DHT22;54700;51.796;10.956;2023-07-29T09:25:41;20.30;99.90
67901;DHT22;54700;51.796;10.956;2023-07-29T09:28:09;20.50;99.80
67901;DHT22;54700;51.796;10.956;2023-07-29T09:30:37;20.70;99.30
67901;DHT22;54700;51.796;10.956;2023-07-29T09:33:04;20.90;97.90
67901;DHT22;54700;51.796;10.956;2023-07-29T09:35:34;21.00;96.70
67901;DHT22;54700;51.796;10.956;2023-07-29T09:38:02;20.90;98.10
67901;DHT22;54700;51.796;10.956;2023-07-29T09:40:33;20.90;98.70
67901;DHT22;54700;51.796;10.956;2023-07-29T09:43:03;20.80;99.20
67901;DHT22;54700;51.796;10.956;2023-07-29T09:45:32;20.80;99.90
67901;DHT22;54700;51.796;10.956;2023-07-29T09:48:00;20.90;98.20
67901;DHT22;54700;51.796;10.956;2023-07-29T09:50:28;21.00;98.60
67901;DHT22;54700;51.796;10.956;2023-07-29T09:52:56;21.20;98.00
67901;DHT22;54700;51.796;10.956;2023-07-29T09:55:25;21.40;97.50
67901;DHT22;54700;51.796;10.956;2023-07-29T09:57:53;21.60;96.20
67901;DHT22;54700;51.796;10.956;2023-07-29T10:00:22;21.80;96.60
67901;DHT22;54700;51.796;10.956;2023-07-29T10:02:50;21.80;94.80
67901;DHT22;54700;51.796;10.956;2023-07-29T10:05:19;21.80;93.20
67901;DHT22;54700;51.796;10.956;2023-07-29T10:07:48;21.90;93.20
67901;DHT22;54700;51.796;10.956;2023-07-29T10:10:17;21.90;93.30
67901;DHT22;54700;51.796;10.956;2023-07-29T10:12:44;22.00;93.00
67901;DHT22;54700;51.796;10.956;2023-07-29T10:15:11;22.20;92.70
67901;DHT22;54700;51.796;10.956;2023-07-29T10:17:39;22.40;92.10
67901;DHT22;54700;51.796;10.956;2023-07-29T10:20:07;22.60;91.60
67901;DHT22;54700;51.796;10.956;2023-07-29T10:22:36;22.70;90.90
67901;DHT22;54700;51.796;10.956;2023-07-29T10:25:04;22.80;90.90
67901;DHT22;54700;51.796;10.956;2023-07-29T10:27:37;22.70;89.60
67901;DHT22;54700;51.796;10.956;2023-07-29T10:30:10;22.80;89.10
67901;DHT22;54700;51.796;10.956;2023-07-29T10:32:38;22.70;88.30
67901;DHT22;54700;51.796;10.956;2023-07-29T10:35:08;22.60;89.70
67901;DHT22;54700;51.796;10.956;2023-07-29T10:37:36;22.50;89.40
67901;DHT22;54700;51.796;10.956;2023-07-29T10:40:05;22.40;90.20
67901;DHT22;54700;51.796;10.956;2023-07-29T10:42:35;22.30;90.30
67901;DHT22;54700;51.796;10.956;2023-07-29T10:45:16;22.20;90.00
67901;DHT22;54700;51.796;10.956;2023-07-29T10:47:44;22.20;91.00
67901;DHT22;54700;51.796;10.956;2023-07-29T10:50:16;22.10;91.40
67901;DHT22;54700;51.796;10.956;2023-07-29T10:52:44;21.80;91.70
67901;DHT22;54700;51.796;10.956;2023-07-29T10:55:25;21.70;92.50
67901;DHT22;54700;51.796;10.956;2023-07-29T10:58:04;21.60;93.20
67901;DHT22;54700;51.796;10.956;2023-07-29T11:00:32;21.70;93.30
67901;DHT22;54700;51.796;10.956;2023-07-29T11:03:00;21.70;93.20
67901;DHT22;54700;51.796;10.956;2023-07-29T11:05:41;21.80;92.70
67901;DHT22;54700;51.796;10.956;2023-07-29T11:08:19;21.80;92.80
67901;DHT22;54700;51.796;10.956;2023-07-29T11:11:01;21.90;93.10
67901;DHT22;54700;51.796;10.956;2023-07-29T11:13:32;21.80;93.50
67901;DHT22;54700;51.796;10.956;2023-07-29T11:16:00;21.70;93.20
67901;DHT22;54700;51.796;10.956;2023-07-29T11:18:27;21.70;93.10
67901;DHT22;54700;51.796;10.956;2023-07-29T11:20:56;21.70;93.50
67901;DHT22;54700;51.796;10.956;2023-07-29T11:23:28;21.80;93.40
67901;DHT22;54700;51.796;10.956;2023-07-29T11:25:58;22.00;93.40
67901;DHT22;54700;51.796;10.956;2023-07-29T11:28:26;22.00;91.90
67901;DHT22;54700;51.796;10.956;2023-07-29T11:30:55;22.00;91.00
67901;DHT22;54700;51.796;10.956;2023-07-29T11:33:23;21.90;90.30
67901;DHT22;54700;51.796;10.956;2023-07-29T11:35:53;21.80;90.20
67901;DHT22;54700;51.796;10.956;2023-07-29T11:38:21;21.70;90.90
67901;DHT22;54700;51.796;10.956;2023-07-29T11:40:56;21.50;90.90
67901;DHT22;54700;51.796;10.956;2023-07-29T11:43:24;21.50;91.10
67901;DHT22;54700;51.796;10.956;2023-07-29T11:45:52;21.60;91.20
67901;DHT22;54700;51.796;10.956;2023-07-29T11:48:27;21.50;90.70
67901;DHT22;54700;51.796;10.956;2023-07-29T11:50:54;21.70;91.20
67901;DHT22;54700;51.796;10.956;2023-07-29T11:53:21;21.80;91.70
67901;DHT22;54700;51.796;10.956;2023-07-29T11:55:49;21.90;90.30
67901;DHT22;54700;51.796;10.956;2023-07-29T11:58:17;22.10;89.40
67901;DHT22;54700;51.796;10.956;2023-07-29T12:00:44;22.30;87.50
67901;DHT22;54700;51.796;10.956;2023-07-29T12:03:11;22.50;86.80
67901;DHT22;54700;51.796;10.956;2023-07-29T12:05:40;22.70;82.10
67901;DHT22;54700;51.796;10.956;2023-07-29T12:08:07;22.90;82.10
67901;DHT22;54700;51.796;10.956;2023-07-29T12:10:34;23.10;82.70
67901;DHT22;54700;51.796;10.956;2023-07-29T12:13:02;23.30;76.70
67901;DHT22;54700;51.796;10.956;2023-07-29T12:15:29;23.40;74.10
67901;DHT22;54700;51.796;10.956;2023-07-29T12:17:56;23.30;75.10
67901;DHT22;54700;51.796;10.956;2023-07-29T12:20:24;23.30;76.50
67901;DHT22;54700;51.796;10.956;2023-07-29T12:22:53;23.20;75.50
67901;DHT22;54700;51.796;10.956;2023-07-29T12:25:20;23.10;78.30
67901;DHT22;54700;51.796;10.956;2023-07-29T12:27:48;22.90;80.00
67901;DHT22;54700;51.796;10.956;2023-07-29T12:30:15;22.80;80.80
67901;DHT22;54700;51.796;10.956;2023-07-29T12:32:42;22.70;85.50
67901;DHT22;54700;51.796;10.956;2023-07-29T12:35:10;22.70;84.40
67901;DHT22;54700;51.796;10.956;2023-07-29T12:37:37;22.70;84.10
67901;DHT22;54700;51.796;10.956;2023-07-29T12:40:09;22.70;82.10
67901;DHT22;54700;51.796;10.956;2023-07-29T12:42:48;22.60;82.40
67901;DHT22;54700;51.796;10.956;2023-07-29T12:45:15;22.70;83.40
67901;DHT22;54700;51.796;10.956;2023-07-29T12:47:42;22.80;84.30
67901;DHT22;54700;51.796;10.956;2023-07-29T12:50:09;22.90;83.20
67901;DHT22;54700;51.796;10.956;2023-07-29T12:52:36;23.00;82.50
67901;DHT22;54700;51.796;10.956;2023-07-29T12:55:03;23.00;81.60
67901;DHT22;54700;51.796;10.956;2023-07-29T12:57:40;23.00;79.40
67901;DHT22;54700;51.796;10.956;2023-07-29T13:00:09;22.90;79.10
67901;DHT22;54700;51.796;10.956;2023-07-29T13:02:37;22.90;76.00
67901;DHT22;54700;51.796;10.956;2023-07-29T13:05:05;22.90;76.70
67901;DHT22;54700;51.796;10.956;2023-07-29T13:07:32;23.00;76.10
67901;DHT22;54700;51.796;10.956;2023-07-29T13:10:00;23.20;72.80
67901;DHT22;54700;51.796;10.956;2023-07-29T13:12:27;23.30;69.30
67901;DHT22;54700;51.796;10.956;2023-07-29T13:14:55;23.30;69.90
67901;DHT22;54700;51.796;10.956;2023-07-29T13:17:22;23.30;64.80
67901;DHT22;54700;51.796;10.956;2023-07-29T13:19:48;23.30;63.70
67901;DHT22;54700;51.796;10.956;2023-07-29T13:22:16;23.20;65.00
67901;DHT22;54700;51.796;10.956;2023-07-29T13:24:43;23.10;65.90
67901;DHT22;54700;51.796;10.956;2023-07-29T13:27:10;23.30;59.30
67901;DHT22;54700;51.796;10.956;2023-07-29T13:29:37;23.30;58.40
67901;DHT22;54700;51.796;10.956;2023-07-29T13:32:05;23.50;55.90
67901;DHT22;54700;51.796;10.956;2023-07-29T13:34:33;23.60;57.90
67901;DHT22;54700;51.796;10.956;2023-07-29T13:37:00;23.70;55.00
67901;DHT22;54700;51.796;10.956;2023-07-29T13:39:27;23.80;54.20
67901;DHT22;54700;51.796;10.956;2023-07-29T13:41:54;23.80;54.30
67901;DHT22;54700;51.796;10.956;2023-07-29T13:44:21;23.80;54.70
67901;DHT22;54700;51.796;10.956;2023-07-29T13:46:47;23.80;57.00
67901;DHT22;54700;51.796;10.956;2023-07-29T13:49:15;23.80;56.70
67901;DHT22;54700;51.796;10.956;2023-07-29T13:51:43;23.80;54.90
67901;DHT22;54700;51.796;10.956;2023-07-29T13:54:10;23.70;56.40
67901;DHT22;54700;51.796;10.956;2023-07-29T13:56:37;23.70;57.90
67901;DHT22;54700;51.796;10.956;2023-07-29T13:59:03;23.80;57.90
67901;DHT22;54700;51.796;10.956;2023-07-29T14:01:30;24.00;58.00
67901;DHT22;54700;51.796;10.956;2023-07-29T14:03:57;24.10;58.90
67901;DHT22;54700;51.796;10.956;2023-07-29T14:06:25;24.30;55.50
67901;DHT22;54700;51.796;10.956;2023-07-29T14:08:52;24.20;54.60
67901;DHT22;54700;51.796;10.956;2023-07-29T14:11:19;24.20;53.60
67901;DHT22;54700;51.796;10.956;2023-07-29T14:13:46;24.10;53.30
67901;DHT22;54700;51.796;10.956;2023-07-29T14:16:13;24.00;52.70
67901;DHT22;54700;51.796;10.956;2023-07-29T14:18:40;24.00;52.60
67901;DHT22;54700;51.796;10.956;2023-07-29T14:21:06;24.00;51.60
67901;DHT22;54700;51.796;10.956;2023-07-29T14:23:34;24.00;53.00
67901;DHT22;54700;51.796;10.956;2023-07-29T14:26:01;24.00;53.40
67901;DHT22;54700;51.796;10.956;2023-07-29T14:28:28;24.00;51.90
67901;DHT22;54700;51.796;10.956;2023-07-29T14:30:55;23.80;51.70
67901;DHT22;54700;51.796;10.956;2023-07-29T14:33:22;23.60;51.50
67901;DHT22;54700;51.796;10.956;2023-07-29T14:35:49;23.70;52.60
67901;DHT22;54700;51.796;10.956;2023-07-29T14:38:16;23.80;53.10
67901;DHT22;54700;51.796;10.956;2023-07-29T14:40:44;23.80;53.60
67901;DHT22;54700;51.796;10.956;2023-07-29T14:43:14;23.90;51.50
67901;DHT22;54700;51.796;10.956;2023-07-29T14:45:41;24.00;51.50
67901;DHT22;54700;51.796;10.956;2023-07-29T14:48:08;23.90;50.50
67901;DHT22;54700;51.796;10.956;2023-07-29T14:50:35;23.90;50.00
67901;DHT22;54700;51.796;10.956;2023-07-29T14:53:01;23.90;49.70
67901;DHT22;54700;51.796;10.956;2023-07-29T14:55:28;23.90;50.10
67901;DHT22;54700;51.796;10.956;2023-07-29T14:57:57;23.90;50.20
67901;DHT22;54700;51.796;10.956;2023-07-29T15:00:23;23.90;50.60
67901;DHT22;54700;51.796;10.956;2023-07-29T15:02:50;23.90;50.00
67901;DHT22;54700;51.796;10.956;2023-07-29T15:05:19;23.80;50.00
67901;DHT22;54700;51.796;10.956;2023-07-29T15:07:46;23.80;50.80
67901;DHT22;54700;51.796;10.956;2023-07-29T15:10:14;23.80;51.60
67901;DHT22;54700;51.796;10.956;2023-07-29T15:12:41;23.80;52.10
67901;DHT22;54700;51.796;10.956;2023-07-29T15:15:10;24.00;51.40
67901;DHT22;54700;51.796;10.956;2023-07-29T15:17:37;23.80;50.00
67901;DHT22;54700;51.796;10.956;2023-07-29T15:20:05;23.80;50.20